Time;durP1;ratioP1;P1;durP2;ratioP2;P2;SDS_P1;SDS_P2;PMS_P1;PMS_P2;Temp;Humidity;BMP_temperature;BMP_pressure;BME280_temperature;BME280_humidity;BME280_pressure;Samples;Min_cycle;Max_cycle;Signal;HPM_P1;HPM_P2
2023/06/17 00:02:09;;;;;;;0.00;0.00;;;21.90;72.00;;;;;;5072258;28;20025;-73
2023/06/17 00:04:36;;;;;;;0.10;0.10;;;21.90;71.70;;;;;;5071677;28;20116;-74
2023/06/17 00:07:02;;;;;;;0.05;0.05;;;21.80;72.00;;;;;;5072499;28;20032;-74
2023/06/17 00:09:28;;;;;;;0.15;0.15;;;21.70;72.50;;;;;;5070932;28;20040;-74
2023/06/17 00:11:56;;;;;;;0.05;0.05;;;21.60;72.90;;;;;;5071502;28;20043;-74
2023/06/17 00:14:23;;;;;;;2.28;0.98;;;21.20;73.90;;;;;;5071647;28;20420;-73
2023/06/17 00:16:49;;;;;;;0.00;0.00;;;21.20;74.20;;;;;;5065834;28;20769;-74
2023/06/17 00:19:15;;;;;;;0.00;0.00;;;21.20;74.40;;;;;;5069954;28;20372;-74
2023/06/17 00:21:43;;;;;;;0.00;0.00;;;21.20;75.10;;;;;;5072588;28;20033;-73
2023/06/17 00:24:12;;;;;;;0.00;0.00;;;21.30;74.70;;;;;;5072352;28;20107;-74
2023/06/17 00:26:38;;;;;;;1.67;0.63;;;21.30;74.60;;;;;;5072461;28;20041;-73
2023/06/17 00:29:07;;;;;;;1.67;1.58;;;21.40;74.80;;;;;;5070775;28;20036;-74
2023/06/17 00:31:34;;;;;;;0.00;0.00;;;21.10;75.10;;;;;;5072895;28;20024;-73
2023/06/17 00:34:00;;;;;;;0.00;0.00;;;21.10;75.70;;;;;;5071736;28;20614;-74
2023/06/17 00:36:26;;;;;;;0.00;0.00;;;21.20;75.90;;;;;;5071924;28;20020;-74
2023/06/17 00:38:52;;;;;;;0.00;0.00;;;20.70;76.70;;;;;;5070687;28;20276;-73
2023/06/17 00:41:18;;;;;;;0.03;0.03;;;20.80;77.60;;;;;;5071782;28;20133;-73
2023/06/17 00:43:45;;;;;;;0.05;0.05;;;20.90;77.10;;;;;;5072016;28;20051;-74
2023/06/17 00:46:30;;;;;;;0.00;0.00;;;20.90;77.60;;;;;;5070852;28;20027;-73
2023/06/17 00:48:56;;;;;;;0.00;0.00;;;20.80;77.80;;;;;;5054212;28;20039;-74
2023/06/17 00:51:22;;;;;;;0.10;0.10;;;20.90;77.70;;;;;;5070740;28;20123;-76
2023/06/17 00:53:48;;;;;;;0.10;0.10;;;20.90;77.60;;;;;;5071582;28;20020;-77
2023/06/17 00:56:17;;;;;;;0.00;0.00;;;20.70;78.80;;;;;;5070599;28;20094;-75
2023/06/17 00:58:44;;;;;;;0.00;0.00;;;20.60;79.30;;;;;;5070458;28;20014;-75
2023/06/17 01:01:10;;;;;;;0.03;0.03;;;21.00;78.50;;;;;;5070458;28;20029;-75
2023/06/17 01:03:36;;;;;;;0.00;0.00;;;21.10;77.70;;;;;;5070880;28;20123;-75
2023/06/17 01:06:11;;;;;;;0.05;0.05;;;21.10;77.80;;;;;;5071999;28;20029;-75
2023/06/17 01:09:19;;;;;;;0.20;0.20;;;21.20;77.50;;;;;;5071724;28;20031;-75
2023/06/17 01:11:47;;;;;;;1.23;0.25;;;21.10;76.90;;;;;;5008946;28;20033;-74
2023/06/17 01:14:14;;;;;;;0.10;0.10;;;20.90;77.50;;;;;;5009585;28;20026;-74
2023/06/17 01:16:42;;;;;;;0.00;0.00;;;20.30;79.50;;;;;;5050803;28;20101;-75
2023/06/17 01:19:20;;;;;;;1.08;0.68;;;20.30;80.20;;;;;;5074089;28;20063;-75
2023/06/17 01:21:51;;;;;;;0.00;0.00;;;20.30;81.40;;;;;;5057181;28;20021;-75
2023/06/17 01:24:27;;;;;;;0.10;0.10;;;20.40;80.10;;;;;;5075408;28;20063;-75
2023/06/17 01:26:56;;;;;;;1.08;0.52;;;20.30;80.50;;;;;;5073320;28;20111;-75
2023/06/17 01:29:36;;;;;;;0.03;0.03;;;20.20;81.10;;;;;;5073904;28;20039;-75
2023/06/17 01:32:05;;;;;;;0.17;0.17;;;20.30;80.90;;;;;;5073939;28;20048;-75
2023/06/17 01:34:43;;;;;;;0.00;0.00;;;20.00;81.00;;;;;;5073879;28;20067;-75
2023/06/17 01:37:11;;;;;;;0.08;0.08;;;19.80;82.90;;;;;;5073724;28;20032;-75
2023/06/17 01:39:41;;;;;;;0.22;0.22;;;19.90;82.20;;;;;;5075145;28;20024;-75
2023/06/17 01:42:13;;;;;;;0.00;0.00;;;20.00;81.50;;;;;;5073135;28;20036;-75
2023/06/17 01:44:39;;;;;;;0.68;0.68;;;20.10;80.90;;;;;;5073806;28;20032;-74
2023/06/17 01:47:09;;;;;;;0.00;0.00;;;20.20;79.60;;;;;;5074962;28;20028;-75
2023/06/17 01:49:37;;;;;;;0.00;0.00;;;20.40;78.50;;;;;;5073403;28;20111;-75
2023/06/17 01:52:04;;;;;;;0.10;0.10;;;20.40;78.50;;;;;;5073241;28;20032;-75
2023/06/17 01:54:30;;;;;;;0.20;0.20;;;20.00;80.30;;;;;;5073136;28;20023;-74
2023/06/17 01:56:56;;;;;;;0.00;0.00;;;19.80;82.00;;;;;;5073381;28;20025;-74
2023/06/17 01:59:22;;;;;;;0.00;0.00;;;19.50;83.80;;;;;;5073304;28;20025;-75
2023/06/17 02:01:48;;;;;;;0.20;0.20;;;19.00;87.90;;;;;;5073173;28;20111;-75
2023/06/17 02:04:14;;;;;;;0.10;0.10;;;18.60;90.30;;;;;;5074523;28;20046;-75
2023/06/17 02:06:40;;;;;;;0.10;0.10;;;18.60;91.60;;;;;;5039350;28;20028;-75
2023/06/17 02:09:06;;;;;;;0.20;0.20;;;18.50;92.30;;;;;;5064824;28;20020;-75
2023/06/17 02:11:32;;;;;;;0.10;0.10;;;18.60;92.50;;;;;;5072967;28;20023;-75
2023/06/17 02:13:58;;;;;;;0.00;0.00;;;18.70;91.80;;;;;;5073249;28;20374;-75
2023/06/17 02:16:24;;;;;;;0.10;0.10;;;19.00;90.80;;;;;;5072866;28;20442;-75
2023/06/17 02:18:52;;;;;;;0.03;0.03;;;19.30;89.50;;;;;;5066060;28;20025;-75
2023/06/17 02:21:18;;;;;;;0.10;0.10;;;19.30;89.20;;;;;;5050905;28;20026;-75
2023/06/17 02:23:48;;;;;;;0.00;0.00;;;19.40;89.00;;;;;;5069800;28;20078;-75
2023/06/17 02:26:16;;;;;;;0.13;0.13;;;19.50;87.60;;;;;;5059063;28;20112;-76
2023/06/17 02:28:42;;;;;;;2.40;0.98;;;19.20;89.30;;;;;;5053716;28;20056;-75
2023/06/17 02:31:08;;;;;;;0.00;0.00;;;18.70;90.30;;;;;;5062572;28;20074;-75
2023/06/17 02:33:35;;;;;;;0.00;0.00;;;18.90;90.70;;;;;;5072532;28;20032;-75
2023/06/17 02:36:01;;;;;;;0.10;0.10;;;19.10;90.20;;;;;;5072720;28;20396;-75
2023/06/17 02:38:28;;;;;;;0.10;0.10;;;19.20;90.40;;;;;;5070133;28;20035;-75
2023/06/17 02:40:54;;;;;;;0.15;0.15;;;19.20;90.60;;;;;;5070449;28;20054;-75
2023/06/17 02:43:20;;;;;;;0.10;0.10;;;19.20;90.70;;;;;;5072457;28;20039;-75
2023/06/17 02:45:46;;;;;;;0.00;0.00;;;19.20;91.00;;;;;;5072471;28;20112;-76
2023/06/17 02:48:12;;;;;;;0.05;0.05;;;19.30;91.00;;;;;;5073766;28;20628;-75
2023/06/17 02:50:38;;;;;;;0.10;0.10;;;19.20;90.90;;;;;;5072429;28;20480;-75
2023/06/17 02:53:04;;;;;;;0.00;0.00;;;19.10;91.30;;;;;;5072069;28;20043;-75
2023/06/17 02:55:30;;;;;;;0.10;0.10;;;19.10;91.40;;;;;;5072065;28;20479;-75
2023/06/17 02:58:02;;;;;;;0.00;0.00;;;18.90;91.80;;;;;;5071922;28;20047;-74
2023/06/17 03:00:36;;;;;;;0.00;0.00;;;18.60;92.90;;;;;;5072233;28;20035;-74
2023/06/17 03:03:01;;;;;;;0.20;0.20;;;18.80;92.30;;;;;;5073065;28;20066;-75
2023/06/17 03:05:29;;;;;;;0.00;0.00;;;18.70;92.30;;;;;;5071775;28;20021;-75
2023/06/17 03:07:55;;;;;;;0.00;0.00;;;18.90;92.00;;;;;;5054907;28;20029;-75
2023/06/17 03:10:21;;;;;;;0.00;0.00;;;19.10;91.50;;;;;;5072050;28;20059;-75
2023/06/17 03:12:55;;;;;;;0.55;0.55;;;18.90;91.80;;;;;;5071589;28;20037;-75
2023/06/17 03:15:21;;;;;;;0.32;0.32;;;19.00;91.40;;;;;;5071970;28;20484;-75
2023/06/17 03:17:46;;;;;;;0.00;0.00;;;18.90;91.40;;;;;;5071675;28;20051;-75
2023/06/17 03:20:12;;;;;;;0.03;0.03;;;18.70;91.70;;;;;;5071491;28;20055;-74
2023/06/17 03:22:39;;;;;;;1.00;1.00;;;18.50;92.80;;;;;;5071305;28;20108;-75
2023/06/17 03:25:07;;;;;;;0.22;0.22;;;18.50;93.00;;;;;;5071150;28;20056;-75
2023/06/17 03:27:33;;;;;;;0.00;0.00;;;18.50;93.00;;;;;;5070644;28;20025;-75
2023/06/17 03:30:02;;;;;;;0.00;0.00;;;18.60;92.60;;;;;;5071091;28;20133;-75
2023/06/17 03:32:28;;;;;;;0.00;0.00;;;18.80;92.10;;;;;;5072461;28;20020;-75
2023/06/17 03:34:54;;;;;;;0.05;0.05;;;18.90;91.00;;;;;;5071289;28;20028;-75
2023/06/17 03:37:20;;;;;;;0.00;0.00;;;18.90;90.80;;;;;;5070338;28;20025;-74
2023/06/17 03:39:46;;;;;;;0.00;0.00;;;18.90;91.00;;;;;;5070769;28;20016;-75
2023/06/17 03:42:15;;;;;;;0.03;0.03;;;18.90;91.10;;;;;;5072660;28;20081;-75
2023/06/17 03:44:41;;;;;;;0.10;0.10;;;18.40;92.00;;;;;;5068013;28;20393;-74
2023/06/17 03:47:07;;;;;;;0.10;0.10;;;18.40;92.20;;;;;;5060167;28;20103;-75
2023/06/17 03:49:33;;;;;;;0.00;0.00;;;18.50;93.20;;;;;;5062442;28;20028;-74
2023/06/17 03:51:59;;;;;;;0.00;0.00;;;18.50;93.60;;;;;;5071122;28;20095;-74
2023/06/17 03:54:27;;;;;;;0.70;0.70;;;18.60;93.30;;;;;;5071379;28;20496;-75
2023/06/17 03:56:55;;;;;;;0.00;0.00;;;18.70;93.00;;;;;;5071266;28;20021;-75
2023/06/17 03:59:21;;;;;;;0.08;0.08;;;18.60;93.30;;;;;;5071114;28;20021;-75
2023/06/17 04:01:48;;;;;;;0.10;0.10;;;18.70;93.20;;;;;;5071065;28;20373;-75
2023/06/17 04:04:14;;;;;;;0.20;0.20;;;18.90;92.40;;;;;;5070965;28;20023;-75
2023/06/17 04:06:40;;;;;;;0.10;0.10;;;18.90;92.10;;;;;;5072372;28;20481;-75
2023/06/17 04:09:06;;;;;;;0.10;0.10;;;19.00;92.40;;;;;;5070792;28;20028;-75
2023/06/17 04:11:33;;;;;;;0.00;0.00;;;19.00;92.90;;;;;;5070757;28;20025;-75
2023/06/17 04:13:59;;;;;;;0.00;0.00;;;18.90;93.50;;;;;;5071283;28;20396;-75
2023/06/17 04:16:30;;;;;;;0.00;0.00;;;18.80;93.20;;;;;;5071058;28;20095;-75
2023/06/17 04:18:57;;;;;;;0.05;0.05;;;18.90;92.80;;;;;;5071385;28;20031;-75
2023/06/17 04:21:23;;;;;;;0.20;0.20;;;19.00;92.40;;;;;;5067106;28;20033;-74
2023/06/17 04:23:50;;;;;;;0.30;0.30;;;19.00;93.00;;;;;;5070235;28;20361;-75
2023/06/17 04:26:16;;;;;;;0.85;0.82;;;19.10;92.70;;;;;;5070534;28;20028;-75
2023/06/17 04:28:42;;;;;;;0.10;0.10;;;19.20;92.50;;;;;;5053752;28;20028;-75
2023/06/17 04:31:10;;;;;;;3.50;1.75;;;19.20;92.50;;;;;;5070540;28;20039;-75
2023/06/17 04:33:37;;;;;;;0.00;0.00;;;19.00;92.10;;;;;;5065553;28;20021;-75
2023/06/17 04:36:08;;;;;;;0.10;0.10;;;19.10;92.90;;;;;;5053988;28;20048;-74
2023/06/17 04:38:39;;;;;;;0.00;0.00;;;19.20;92.70;;;;;;5054549;28;20054;-75
2023/06/17 04:41:06;;;;;;;0.00;0.00;;;19.40;93.80;;;;;;5070182;28;20029;-75
2023/06/17 04:43:33;;;;;;;0.00;0.00;;;19.40;92.90;;;;;;5070396;28;20041;-75
2023/06/17 04:46:01;;;;;;;0.05;0.05;;;19.60;93.20;;;;;;5070230;28;20020;-74
2023/06/17 04:48:28;;;;;;;0.00;0.00;;;19.50;92.20;;;;;;5070537;28;20036;-75
2023/06/17 04:50:58;;;;;;;0.30;0.30;;;19.60;91.80;;;;;;5074335;28;20413;-74
2023/06/17 04:53:24;;;;;;;0.00;0.00;;;19.50;91.50;;;;;;5074484;28;20389;-75
2023/06/17 04:55:50;;;;;;;0.75;0.75;;;19.80;91.30;;;;;;5073885;28;20055;-74
2023/06/17 04:58:17;;;;;;;0.10;0.10;;;20.00;90.60;;;;;;5074574;28;20431;-74
2023/06/17 05:00:49;;;;;;;0.00;0.00;;;20.20;90.40;;;;;;5074130;28;20021;-74
2023/06/17 05:03:19;;;;;;;0.80;0.43;;;20.20;90.10;;;;;;5074444;28;20016;-74
2023/06/17 05:05:46;;;;;;;0.00;0.00;;;20.10;90.30;;;;;;5056984;28;20366;-75
2023/06/17 05:08:12;;;;;;;0.00;0.00;;;20.10;90.30;;;;;;5069465;28;20445;-74
2023/06/17 05:10:38;;;;;;;0.00;0.00;;;20.30;90.10;;;;;;5064361;28;20079;-74
2023/06/17 05:13:05;;;;;;;1.75;1.65;;;20.50;89.10;;;;;;5074283;28;20025;-74
2023/06/17 05:15:32;;;;;;;0.00;0.00;;;20.50;89.90;;;;;;5074168;28;20039;-74
2023/06/17 05:17:57;;;;;;;0.38;0.38;;;20.70;89.00;;;;;;5073202;28;20016;-74
2023/06/17 05:20:24;;;;;;;0.00;0.00;;;20.50;89.80;;;;;;5074219;28;20028;-75
2023/06/17 05:22:49;;;;;;;0.10;0.10;;;20.50;87.60;;;;;;5073967;28;20556;-74
2023/06/17 05:25:16;;;;;;;0.00;0.00;;;20.60;87.50;;;;;;5073976;28;20115;-74
2023/06/17 05:27:42;;;;;;;0.00;0.00;;;20.80;87.10;;;;;;5073947;28;20060;-73
2023/06/17 05:30:09;;;;;;;0.00;0.00;;;20.80;86.40;;;;;;5073795;28;20036;-73
2023/06/17 05:32:35;;;;;;;0.00;0.00;;;21.00;86.40;;;;;;5073688;28;20021;-73
2023/06/17 05:35:01;;;;;;;0.00;0.00;;;21.20;86.30;;;;;;5075008;28;20105;-73
2023/06/17 05:37:33;;;;;;;0.00;0.00;;;21.50;83.70;;;;;;5073368;28;20021;-73
2023/06/17 05:40:00;;;;;;;0.00;0.00;;;21.80;82.90;;;;;;5073532;28;20029;-74
2023/06/17 05:42:27;;;;;;;0.17;0.17;;;21.80;82.30;;;;;;5073012;28;20404;-73
2023/06/17 05:44:53;;;;;;;0.20;0.20;;;21.90;81.70;;;;;;5073348;28;20025;-73
2023/06/17 05:47:19;;;;;;;0.10;0.10;;;22.40;80.20;;;;;;5074519;28;20039;-73
2023/06/17 05:49:45;;;;;;;0.10;0.10;;;22.40;79.60;;;;;;5073029;28;20034;-73
2023/06/17 05:52:11;;;;;;;0.38;0.38;;;22.30;79.60;;;;;;5073489;28;20029;-73
2023/06/17 05:54:38;;;;;;;0.10;0.10;;;22.50;79.20;;;;;;5073629;28;20099;-73
2023/06/17 05:57:05;;;;;;;0.10;0.10;;;22.60;78.50;;;;;;5073133;28;20020;-74
2023/06/17 05:59:31;;;;;;;0.08;0.08;;;22.60;78.40;;;;;;5073278;28;20043;-73
2023/06/17 06:01:57;;;;;;;0.10;0.10;;;22.60;77.00;;;;;;5071760;28;20032;-74
2023/06/17 06:04:24;;;;;;;0.10;0.10;;;22.80;77.00;;;;;;5073236;28;20024;-73
2023/06/17 06:06:50;;;;;;;0.43;0.43;;;23.00;76.10;;;;;;5074016;28;20438;-73
2023/06/17 06:09:16;;;;;;;0.00;0.00;;;22.90;75.10;;;;;;5038811;28;20049;-73
2023/06/17 06:11:41;;;;;;;0.40;0.40;;;22.90;75.40;;;;;;5051535;28;20021;-74
2023/06/17 06:14:09;;;;;;;0.43;0.43;;;22.70;75.00;;;;;;5051421;28;20037;-74
2023/06/17 06:16:35;;;;;;;0.05;0.05;;;22.80;74.60;;;;;;5051706;28;20027;-74
2023/06/17 06:19:01;;;;;;;1.85;0.35;;;22.40;75.00;;;;;;5051723;28;20112;-74
2023/06/17 06:21:27;;;;;;;0.08;0.08;;;22.30;75.60;;;;;;5051902;28;20028;-73
2023/06/17 06:23:53;;;;;;;0.10;0.10;;;22.70;74.90;;;;;;5051533;28;20021;-73
2023/06/17 06:26:21;;;;;;;0.10;0.10;;;22.80;74.90;;;;;;5062014;28;20056;-75
2023/06/17 06:28:47;;;;;;;0.10;0.10;;;22.90;74.00;;;;;;5052056;28;20025;-73
2023/06/17 06:31:13;;;;;;;0.20;0.20;;;23.10;73.30;;;;;;5051079;28;20033;-73
2023/06/17 06:33:40;;;;;;;0.00;0.00;;;22.90;73.00;;;;;;5051398;28;20048;-73
2023/06/17 06:36:08;;;;;;;0.05;0.05;;;23.10;73.10;;;;;;5051628;28;20536;-73
2023/06/17 06:38:35;;;;;;;0.10;0.10;;;23.40;72.30;;;;;;5050719;28;20028;-73
2023/06/17 06:41:01;;;;;;;0.20;0.20;;;23.30;72.90;;;;;;5034369;28;20021;-73
2023/06/17 06:43:28;;;;;;;0.00;0.00;;;23.30;71.90;;;;;;5050955;28;20029;-73
2023/06/17 06:45:55;;;;;;;0.00;0.00;;;23.60;71.70;;;;;;5034725;28;20070;-73
2023/06/17 06:48:22;;;;;;;8.05;0.95;;;23.80;71.20;;;;;;5050898;28;20053;-73
2023/06/17 06:50:49;;;;;;;0.00;0.00;;;23.90;70.70;;;;;;5051128;28;20124;-73
2023/06/17 06:53:19;;;;;;;0.10;0.10;;;24.00;70.90;;;;;;5050984;28;20017;-74
2023/06/17 06:55:45;;;;;;;0.22;0.22;;;23.60;71.40;;;;;;5051049;28;20032;-74
2023/06/17 06:58:11;;;;;;;0.25;0.25;;;23.90;71.30;;;;;;5050856;28;20473;-74
2023/06/17 07:00:39;;;;;;;0.13;0.13;;;24.10;70.40;;;;;;5034226;28;20124;-74
2023/06/17 07:03:04;;;;;;;0.20;0.20;;;23.70;71.10;;;;;;5050289;28;20017;-74
2023/06/17 07:05:30;;;;;;;0.00;0.00;;;24.00;70.30;;;;;;5050754;28;20032;-73
2023/06/17 07:08:00;;;;;;;0.88;0.88;;;24.40;69.20;;;;;;5046030;28;20017;-74
2023/06/17 07:10:26;;;;;;;0.00;0.00;;;24.60;68.90;;;;;;5050877;28;20040;-74
2023/06/17 07:12:52;;;;;;;0.00;0.00;;;24.80;69.50;;;;;;5049939;28;20021;-74
2023/06/17 07:15:18;;;;;;;0.00;0.00;;;24.80;69.20;;;;;;5051850;28;20036;-73
2023/06/17 07:17:46;;;;;;;0.00;0.00;;;24.90;69.10;;;;;;5050480;28;20032;-73
2023/06/17 07:20:13;;;;;;;0.08;0.08;;;25.10;69.00;;;;;;5050562;28;20029;-74
2023/06/17 07:22:39;;;;;;;0.10;0.10;;;25.00;68.00;;;;;;5049661;28;20123;-72
2023/06/17 07:25:05;;;;;;;0.13;0.13;;;25.00;67.60;;;;;;5048048;28;20021;-74
2023/06/17 07:27:31;;;;;;;0.03;0.03;;;24.60;68.30;;;;;;5068206;28;20035;-75
2023/06/17 07:29:57;;;;;;;0.30;0.30;;;25.00;68.10;;;;;;5056426;28;20115;-75
2023/06/17 07:32:23;;;;;;;0.70;0.70;;;25.00;67.90;;;;;;5050729;28;20013;-76
2023/06/17 07:34:48;;;;;;;0.22;0.22;;;25.30;67.20;;;;;;5050703;28;20029;-76
2023/06/17 07:37:15;;;;;;;0.38;0.38;;;25.40;66.60;;;;;;5050390;28;20382;-75
2023/06/17 07:39:41;;;;;;;0.00;0.00;;;25.20;66.50;;;;;;5052074;28;20052;-76
2023/06/17 07:42:07;;;;;;;0.20;0.20;;;24.90;67.00;;;;;;5051899;28;20122;-75
2023/06/17 07:44:33;;;;;;;0.57;0.52;;;25.00;65.60;;;;;;5048239;28;20025;-75
2023/06/17 07:46:58;;;;;;;1.85;0.43;;;25.00;65.60;;;;;;5062813;28;20033;-75
2023/06/17 07:49:24;;;;;;;6.75;0.43;;;25.10;66.00;;;;;;5047449;28;20037;-75
2023/06/17 07:51:50;;;;;;;0.10;0.10;;;25.30;65.80;;;;;;5048161;28;20036;-76
2023/06/17 07:54:16;;;;;;;0.98;0.88;;;25.00;65.40;;;;;;5048512;28;20021;-76
2023/06/17 07:56:42;;;;;;;0.00;0.00;;;25.00;66.40;;;;;;5049271;28;20013;-76
2023/06/17 07:59:08;;;;;;;1.42;0.60;;;25.40;65.40;;;;;;5043116;28;20437;-75
2023/06/17 08:01:35;;;;;;;0.40;0.40;;;25.70;64.70;;;;;;5051592;28;20381;-75
2023/06/17 08:04:00;;;;;;;0.88;0.25;;;25.90;64.70;;;;;;5046473;28;20021;-76
2023/06/17 08:06:28;;;;;;;3.35;0.73;;;25.90;64.90;;;;;;5044206;28;20473;-74
2023/06/17 08:08:54;;;;;;;0.15;0.15;;;26.20;64.90;;;;;;5047865;28;21276;-76
2023/06/17 08:11:20;;;;;;;0.03;0.03;;;26.40;64.70;;;;;;5046648;28;20032;-76
2023/06/17 08:13:46;;;;;;;0.63;0.47;;;26.50;64.20;;;;;;5044402;28;20045;-75
2023/06/17 08:16:12;;;;;;;0.00;0.00;;;26.40;63.60;;;;;;5051062;28;20131;-75
2023/06/17 08:18:38;;;;;;;0.90;0.90;;;26.20;63.30;;;;;;5051529;28;20056;-75
2023/06/17 08:21:03;;;;;;;0.43;0.43;;;26.10;62.80;;;;;;5050967;28;20109;-75
2023/06/17 08:23:29;;;;;;;0.10;0.10;;;25.90;65.10;;;;;;5050733;28;20025;-74
2023/06/17 08:25:56;;;;;;;0.32;0.30;;;26.00;65.00;;;;;;5055627;28;20047;-72
2023/06/17 08:28:22;;;;;;;0.35;0.35;;;26.20;65.00;;;;;;5062970;28;20482;-77
2023/06/17 08:30:49;;;;;;;2.50;0.38;;;26.60;64.20;;;;;;5043230;28;20044;-72
2023/06/17 08:33:15;;;;;;;0.20;0.20;;;26.90;64.80;;;;;;5054647;28;20466;-73
2023/06/17 08:35:40;;;;;;;0.10;0.10;;;27.30;63.20;;;;;;5055404;28;20070;-73
2023/06/17 08:38:06;;;;;;;0.00;0.00;;;27.00;63.60;;;;;;5054987;28;20021;-73
2023/06/17 08:40:35;;;;;;;0.32;0.32;;;27.30;63.60;;;;;;5054817;28;20940;-74
2023/06/17 08:43:02;;;;;;;0.20;0.20;;;27.70;63.30;;;;;;5045364;28;20371;-73
2023/06/17 08:45:28;;;;;;;0.00;0.00;;;27.90;62.00;;;;;;5053710;28;20048;-73
2023/06/17 08:47:54;;;;;;;0.00;0.00;;;28.00;62.30;;;;;;5053253;28;20033;-73
2023/06/17 08:50:21;;;;;;;0.10;0.10;;;28.00;61.90;;;;;;5053691;28;20041;-73
2023/06/17 08:52:48;;;;;;;0.10;0.10;;;28.40;61.90;;;;;;5054520;28;20025;-73
2023/06/17 08:55:15;;;;;;;2.65;1.48;;;28.10;61.50;;;;;;5043788;28;20108;-73
2023/06/17 08:57:42;;;;;;;0.00;0.00;;;28.30;62.10;;;;;;5054050;28;20475;-74
2023/06/17 09:00:11;;;;;;;2.35;0.70;;;28.70;62.50;;;;;;5055102;28;20485;-73
2023/06/17 09:02:37;;;;;;;0.00;0.00;;;28.50;60.30;;;;;;5052318;28;20107;-73
2023/06/17 09:05:04;;;;;;;0.70;0.52;;;27.80;61.50;;;;;;5054284;28;20397;-73
2023/06/17 09:07:30;;;;;;;1.55;1.13;;;27.80;62.00;;;;;;5052795;28;20025;-73
2023/06/17 09:10:05;;;;;;;1.60;1.48;;;27.50;61.60;;;;;;5053121;28;20029;-73
2023/06/17 09:12:40;;;;;;;0.50;0.45;;;27.20;62.00;;;;;;5054484;28;20028;-73
2023/06/17 09:15:08;;;;;;;0.43;0.43;;;27.40;63.20;;;;;;5053936;28;20029;-73
2023/06/17 09:17:36;;;;;;;0.35;0.30;;;27.90;62.00;;;;;;5047406;28;20082;-73
2023/06/17 09:20:15;;;;;;;0.43;0.30;;;28.10;60.80;;;;;;5048281;28;20020;-73
2023/06/17 09:22:43;;;;;;;0.20;0.20;;;28.00;61.20;;;;;;5045624;28;20041;-73
2023/06/17 09:25:14;;;;;;;0.50;0.50;;;27.80;63.30;;;;;;5052718;28;20108;-73
2023/06/17 09:27:51;;;;;;;0.40;0.40;;;28.60;62.20;;;;;;5071703;28;20032;-72
2023/06/17 09:30:17;;;;;;;0.95;0.75;;;29.10;61.10;;;;;;5060114;28;20051;-71
2023/06/17 09:32:44;;;;;;;0.10;0.10;;;28.50;61.70;;;;;;5061252;28;20452;-71
2023/06/17 09:35:17;;;;;;;0.00;0.00;;;27.80;60.70;;;;;;5056626;28;20021;-72
2023/06/17 09:37:53;;;;;;;0.35;0.35;;;28.20;61.00;;;;;;5054240;28;20120;-72
2023/06/17 09:40:27;;;;;;;0.05;0.05;;;28.40;61.50;;;;;;5054130;28;20025;-72
2023/06/17 09:42:53;;;;;;;0.00;0.00;;;29.00;62.90;;;;;;5053600;28;20041;-73
2023/06/17 09:45:24;;;;;;;0.10;0.10;;;28.90;62.20;;;;;;5052059;28;20025;-72
2023/06/17 09:47:53;;;;;;;;;;;28.80;61.20;;;;;;5054241;28;20108;-72
2023/06/17 09:50:22;;;;;;;1.45;0.70;;;29.60;62.00;;;;;;5053853;28;19917;-73
2023/06/17 09:52:52;;;;;;;0.00;0.00;;;29.70;61.40;;;;;;5053526;28;20515;-73
2023/06/17 09:55:20;;;;;;;0.05;0.05;;;29.80;61.00;;;;;;5053330;28;20032;-72
2023/06/17 09:57:47;;;;;;;0.00;0.00;;;29.50;60.90;;;;;;5052167;28;20033;-73
2023/06/17 10:00:14;;;;;;;0.95;0.52;;;29.60;61.10;;;;;;5053400;28;20104;-73
2023/06/17 10:02:40;;;;;;;0.10;0.10;;;29.40;60.90;;;;;;5053429;28;20421;-73
2023/06/17 10:05:11;;;;;;;0.20;0.20;;;29.50;59.50;;;;;;5053100;28;20079;-73
2023/06/17 10:07:39;;;;;;;0.20;0.20;;;29.70;59.20;;;;;;5052008;28;20070;-72
2023/06/17 10:10:08;;;;;;;0.30;0.20;;;30.30;60.20;;;;;;5046085;28;20095;-73
2023/06/17 10:12:36;;;;;;;1.88;1.13;;;30.20;59.30;;;;;;5052093;28;20082;-73
2023/06/17 10:15:03;;;;;;;0.10;0.10;;;30.00;59.70;;;;;;5053479;28;20519;-76
2023/06/17 10:17:31;;;;;;;0.00;0.00;;;30.20;58.70;;;;;;5053110;28;20505;-76
2023/06/17 10:20:00;;;;;;;0.00;0.00;;;30.60;59.50;;;;;;5053733;28;20033;-76
2023/06/17 10:22:26;;;;;;;0.00;0.00;;;30.30;60.60;;;;;;5051662;28;20433;-77
2023/06/17 10:24:52;;;;;;;0.32;0.32;;;31.00;59.50;;;;;;5052691;28;20071;-77
2023/06/17 10:27:22;;;;;;;0.15;0.15;;;30.70;59.60;;;;;;5067406;28;20127;-77
2023/06/17 10:29:48;;;;;;;0.88;0.43;;;31.20;59.90;;;;;;5061394;28;20428;-77
2023/06/17 10:32:22;;;;;;;0.10;0.10;;;31.30;59.30;;;;;;5058119;28;20025;-75
2023/06/17 10:35:06;;;;;;;1.40;1.02;;;31.30;57.90;;;;;;5061529;28;20040;-75
2023/06/17 10:37:44;;;;;;;0.00;0.00;;;30.50;58.30;;;;;;5058514;28;20029;-78
2023/06/17 10:40:20;;;;;;;0.52;0.52;;;31.00;59.80;;;;;;5050329;28;20640;-72
2023/06/17 10:42:58;;;;;;;0.17;0.17;;;31.50;58.70;;;;;;5050452;28;20051;-79
2023/06/17 10:45:24;;;;;;;0.10;0.10;;;31.20;59.70;;;;;;5044349;28;20032;-74
2023/06/17 10:47:50;;;;;;;0.57;0.30;;;31.30;59.50;;;;;;5049005;28;20637;-76
2023/06/17 10:50:21;;;;;;;0.43;0.35;;;30.60;59.30;;;;;;5049117;28;20051;-76
2023/06/17 10:52:54;;;;;;;0.10;0.10;;;31.60;58.40;;;;;;5061410;28;20108;-77
2023/06/17 10:55:21;;;;;;;0.10;0.10;;;31.50;57.60;;;;;;5047490;28;20103;-77
2023/06/17 10:57:47;;;;;;;0.57;0.35;;;31.00;58.20;;;;;;5051844;28;20062;-77
2023/06/17 11:00:13;;;;;;;0.00;0.00;;;30.80;58.70;;;;;;5052100;28;20040;-77
2023/06/17 11:02:40;;;;;;;0.13;0.13;;;31.00;58.80;;;;;;5052515;28;20017;-76
2023/06/17 11:05:07;;;;;;;0.30;0.30;;;31.30;58.10;;;;;;5052960;28;20094;-76
2023/06/17 11:07:33;;;;;;;0.10;0.10;;;30.70;58.00;;;;;;5052714;28;20477;-75
2023/06/17 11:09:59;;;;;;;1.45;0.40;;;30.30;58.60;;;;;;5052379;28;20120;-76
2023/06/17 11:12:25;;;;;;;0.30;0.28;;;30.70;58.30;;;;;;5053565;28;20037;-78
2023/06/17 11:14:51;;;;;;;0.10;0.10;;;30.60;58.00;;;;;;5052578;28;20028;-78
2023/06/17 11:17:17;;;;;;;0.75;0.63;;;31.00;58.10;;;;;;5051290;28;20078;-78
2023/06/17 11:19:43;;;;;;;0.00;0.00;;;31.30;58.20;;;;;;5052147;28;20032;-78
2023/06/17 11:22:09;;;;;;;0.50;0.50;;;31.60;56.50;;;;;;5037301;28;20475;-77
2023/06/17 11:24:35;;;;;;;0.20;0.20;;;31.70;57.10;;;;;;5051577;28;20100;-77
2023/06/17 11:27:02;;;;;;;2.05;0.80;;;31.40;57.00;;;;;;5055683;28;20041;-78
2023/06/17 11:29:28;;;;;;;1.67;1.33;;;29.90;58.50;;;;;;5056635;28;20025;-76
2023/06/17 11:31:58;;;;;;;1.08;0.70;;;29.30;58.20;;;;;;5047446;28;20057;-74
2023/06/17 11:34:25;;;;;;;0.08;0.03;;;29.60;58.50;;;;;;5038055;28;20500;-74
2023/06/17 11:36:52;;;;;;;0.00;0.00;;;30.00;57.90;;;;;;5047345;28;20037;-77
2023/06/17 11:39:22;;;;;;;6.85;0.95;;;30.40;57.80;;;;;;5050038;28;20028;-77
2023/06/17 11:41:50;;;;;;;0.10;0.10;;;30.90;57.70;;;;;;5049505;28;20033;-78
2023/06/17 11:44:17;;;;;;;0.70;0.70;;;31.10;57.70;;;;;;5051531;28;20031;-77
2023/06/17 11:46:43;;;;;;;0.35;0.35;;;31.20;57.40;;;;;;5050017;28;20033;-77
2023/06/17 11:49:09;;;;;;;0.50;0.50;;;31.30;58.10;;;;;;5051036;28;20039;-77
2023/06/17 11:51:36;;;;;;;0.05;0.05;;;30.60;57.70;;;;;;5051013;28;20021;-77
2023/06/17 11:54:05;;;;;;;0.50;0.50;;;30.90;58.20;;;;;;5049388;28;20473;-81
2023/06/17 11:56:32;;;;;;;0.85;0.82;;;30.70;58.10;;;;;;5051697;28;20163;-84
2023/06/17 11:58:58;;;;;;;0.80;0.73;;;30.50;57.10;;;;;;5049029;28;20112;-82
2023/06/17 12:01:25;;;;;;;0.75;0.38;;;30.20;57.70;;;;;;5051807;28;20035;-83
2023/06/17 12:03:55;;;;;;;0.65;0.40;;;30.10;58.60;;;;;;5051503;28;20047;-84
2023/06/17 12:06:22;;;;;;;1.13;0.70;;;30.50;58.50;;;;;;5050507;28;20027;-83
2023/06/17 12:08:59;;;;;;;0.15;0.15;;;30.40;58.30;;;;;;5051480;28;20040;-85
2023/06/17 12:11:28;;;;;;;0.70;0.70;;;30.70;57.80;;;;;;5049974;28;20037;-85
2023/06/17 12:13:54;;;;;;;0.00;0.00;;;31.50;58.00;;;;;;5050449;28;20021;-84
2023/06/17 12:16:31;;;;;;;0.98;0.60;;;30.90;56.80;;;;;;5051673;28;20037;-85
2023/06/17 12:18:58;;;;;;;0.10;0.10;;;31.10;59.30;;;;;;5050711;28;20037;-85
2023/06/17 12:21:24;;;;;;;0.88;0.80;;;31.20;58.20;;;;;;5051391;28;20021;-83
2023/06/17 12:23:53;;;;;;;0.10;0.10;;;31.80;57.40;;;;;;5051158;28;20029;-84
2023/06/17 12:26:20;;;;;;;0.00;0.00;;;31.90;58.50;;;;;;5056798;28;20033;-84
2023/06/17 12:28:46;;;;;;;0.15;0.15;;;31.60;57.30;;;;;;5061710;28;20029;-83
2023/06/17 12:31:14;;;;;;;0.80;0.75;;;32.30;57.50;;;;;;5070760;28;20108;-83
2023/06/17 12:33:40;;;;;;;0.10;0.10;;;32.10;57.30;;;;;;5069226;28;20443;-83
2023/06/17 12:36:07;;;;;;;0.28;0.28;;;31.80;57.30;;;;;;5057730;28;20029;-83
2023/06/17 12:38:33;;;;;;;3.15;0.82;;;31.90;56.50;;;;;;5061767;28;20108;-85
2023/06/17 12:41:00;;;;;;;0.32;0.32;;;31.90;56.40;;;;;;5070637;28;20032;-82
2023/06/17 12:43:28;;;;;;;0.90;0.88;;;32.00;57.60;;;;;;5072362;28;20397;-85
2023/06/17 12:45:55;;;;;;;2.00;1.08;;;31.70;58.00;;;;;;5064020;28;20394;-75
2023/06/17 12:48:20;;;;;;;0.52;0.22;;;31.50;57.60;;;;;;5051923;28;20013;-73
2023/06/17 12:50:46;;;;;;;0.55;0.52;;;31.30;57.80;;;;;;5051759;28;20504;-74